EGPNEGPD

Guest
Details From EGPN - Dundee
To EGPD - Aberdeen Dyce
Flight Number -
Tags Generated
Created
Modified
Stats Distance 53 nm / 98 km
Max Altitude 0 ft / 0 m
Waypoints 2
Social Downloads 5
Likes 0
Share VATSIM

Download

Looking for another format? Having issues loading an existing format? Contact us
Advertisement - Login to hide

Notes

Generated

Route

EGPN EGPD

ID Type Via Altitude Latitude Longitude Leg Dist Tot Dist Heading (true) Name
O EGPN APT - 0 ft / 0 m 56.45247˚ -3.03718˚ - 0 nm - -
O EGPD APT - 0 ft / 0 m 57.20472˚ -2.20167˚ 52 nm 52 nm 31° / 32° Aberdeen Dyce

Altitude Profile

Advertisement - Login to hide

EGPN

Details ICAO EGPN (DND)
Name Dundee
Region United Kingdom
Timezone Unknown (UTC+0.0)
Stats Elevation 17 ft / 5 m (AMSL)
Location 56.452410° -3.025830°
Runways 1
Magnetic Variation 2.171° W

METAR

EGPN 221220Z 09008KT 050V120 9999 SCT040 14/07 Q1024

Decode

TAF

Not found

Departure Runways

ID Width Length Bearing (true) Bearing (mag) Surface Threshold Offset Overrun Length
09 98 ft / 30 m 4,578 ft / 1,396 m 90.49° 92.66° Asphalt 0 ft / 0 m 0 ft / 0 m
27 98 ft / 30 m 4,578 ft / 1,396 m 270.51° 272.68° Asphalt 0 ft / 0 m 0 ft / 0 m

EGPD

Details ICAO EGPD (ABZ)
Name Aberdeen Dyce
Region United Kingdom
Timezone Europe/London (UTC+1.0)
Stats Elevation 215 ft / 66 m (AMSL)
Location 57.203623° -2.199018°
Runways 4
Magnetic Variation 1.948° W

METAR

EGPD 221220Z AUTO 01010KT 9999 BKN015 OVC022 10/07 Q1026 TEMPO BKN014

Decode

TAF

TAF EGPD 221102Z 2212/2312 02010KT 9999 BKN009 BECMG 2212/2215 SCT015 TEMPO 2215/2310 BKN009 PROB40 2220/2309 6000 BECMG 2222/2301 VRB03KT PROB30 TEMPO 2300/2306 4000 BR BKN005

Decode

Destination Runways

ID Width Length Bearing (true) Bearing (mag) Surface Threshold Offset Overrun Length
05 151 ft / 46 m 1,555 ft / 474 m 46.38° 48.33° Concrete 0 ft / 0 m 0 ft / 0 m
14 118 ft / 36 m 1,901 ft / 579 m 139.16° 141.11° Asphalt 0 ft / 0 m 0 ft / 0 m
16 151 ft / 46 m 6,006 ft / 1,831 m 158.21° 160.16° Asphalt 0 ft / 0 m 0 ft / 0 m
18 75 ft / 23 m 896 ft / 273 m 179.48° 181.43° Asphalt 0 ft / 0 m 0 ft / 0 m
23 151 ft / 46 m 1,555 ft / 474 m 226.38° 228.33° Concrete 0 ft / 0 m 0 ft / 0 m
32 118 ft / 36 m 1,901 ft / 579 m 319.16° 321.11° Asphalt 0 ft / 0 m 0 ft / 0 m
34 151 ft / 46 m 6,006 ft / 1,831 m 338.22° 340.17° Asphalt 0 ft / 0 m 0 ft / 0 m
36 75 ft / 23 m 896 ft / 273 m 359.48° 1.43° Asphalt 0 ft / 0 m 0 ft / 0 m

Approach Navaids

Runway Type Ident Frequency Range Bearing (true) Bearing (mag) Slope Elevation
16 Localiser IAX 109.90 MHz 18 nm / 33 km 158.22° 160.17° - 215 ft / 66 m (AMSL)
16 Glidescope IAX 109.90 MHz 10 nm / 19 km 158.21° 160.16° 3.00° 215 ft / 66 m (AMSL)
16 DME IAX 109.90 MHz 18 nm / 33 km - - - 215 ft / 66 m (AMSL)
34 Localiser IABD 109.90 MHz 18 nm / 33 km 338.20° 340.15° - 215 ft / 66 m (AMSL)
34 Glidescope IABD 109.90 MHz 10 nm / 19 km 338.21° 340.16° 3.00° 215 ft / 66 m (AMSL)
34 DME IABD 109.90 MHz 18 nm / 33 km - - - 215 ft / 66 m (AMSL)

Popular Alternatives